createdAt,value
2022-12-04T00:00:52.818Z,101992.75
2022-12-04T00:03:19.595Z,101991.91
2022-12-04T00:05:46.213Z,101995.31
2022-12-04T00:08:13.031Z,102001.28
2022-12-04T00:10:43.981Z,101994.41
2022-12-04T00:13:10.643Z,102004.69
2022-12-04T00:15:42.376Z,102007.25
2022-12-04T00:18:09.021Z,102005.59
2022-12-04T00:20:40.263Z,101995.31
2022-12-04T00:23:07.440Z,102004.69
2022-12-04T00:25:39.260Z,102005.56
2022-12-04T00:28:07.658Z,101994.41
2022-12-04T00:30:34.182Z,101996.09
2022-12-04T00:33:00.824Z,101995.25
2022-12-04T00:35:27.307Z,101988.41
2022-12-04T00:37:53.878Z,101985.84
2022-12-04T00:40:20.546Z,101984.94
2022-12-04T00:42:47.158Z,101991.81
2022-12-04T00:45:13.712Z,101979.84
2022-12-04T00:47:40.359Z,101981.56
2022-12-04T00:50:07.642Z,101987.47
2022-12-04T00:52:34.326Z,101985.78
2022-12-04T00:55:01.004Z,101985.75
2022-12-04T00:57:27.649Z,101984.88
2022-12-04T00:59:54.365Z,101979.75
2022-12-04T01:02:21.250Z,101978.97
2022-12-04T01:04:47.937Z,101986.66
2022-12-04T01:07:14.559Z,101984.91
2022-12-04T01:09:41.167Z,101982.34
2022-12-04T01:12:07.809Z,101986.63
2022-12-04T01:14:34.354Z,101988.34
2022-12-04T01:17:01.067Z,101983.22
2022-12-04T01:19:27.662Z,101987.50
2022-12-04T01:21:54.236Z,101973.00
2022-12-04T01:24:21.549Z,101973.78
2022-12-04T01:26:48.166Z,101971.25
2022-12-04T01:29:14.693Z,101975.53
2022-12-04T01:31:41.454Z,101982.41
2022-12-04T01:34:08.037Z,101972.06
2022-12-04T01:36:34.634Z,101971.25
2022-12-04T01:39:01.397Z,101964.44
2022-12-04T01:41:30.363Z,101967.84
2022-12-04T01:44:18.740Z,101975.53
2022-12-04T01:46:49.831Z,101988.38
2022-12-04T01:49:31.187Z,101983.25
2022-12-04T01:52:02.202Z,101968.69
2022-12-04T01:54:34.799Z,101982.41
2022-12-04T01:57:11.747Z,101970.44
2022-12-04T01:59:46.138Z,101978.97
2022-12-04T02:02:16.113Z,101977.25
2022-12-04T02:04:43.737Z,101975.59
2022-12-04T02:07:11.099Z,101975.63
2022-12-04T02:09:39.560Z,101972.16
2022-12-04T02:12:24.608Z,101973.84
2022-12-04T02:15:18.652Z,101970.38
2022-12-04T02:18:08.594Z,101978.97
2022-12-04T02:20:47.156Z,101973.84
2022-12-04T02:23:16.715Z,101976.38
2022-12-04T02:26:15.137Z,101963.50
2022-12-04T02:28:51.674Z,101975.50
2022-12-04T02:31:34.648Z,101969.50
2022-12-04T02:34:06.730Z,101972.09
2022-12-04T02:36:39.638Z,101961.84
2022-12-04T02:39:16.269Z,101962.72
2022-12-04T02:42:04.089Z,101955.84
2022-12-04T02:45:06.263Z,101960.13
2022-12-04T02:47:36.232Z,101958.44
2022-12-04T02:50:08.260Z,101957.59
2022-12-04T02:52:53.933Z,101960.16
2022-12-04T02:55:28.091Z,101966.97
2022-12-04T02:58:00.217Z,101957.56
2022-12-04T03:00:29.212Z,101949.03
2022-12-04T03:03:01.864Z,101960.16
2022-12-04T03:05:39.096Z,101961.00
2022-12-04T03:08:15.169Z,101968.66
2022-12-04T03:10:49.190Z,101960.03
2022-12-04T03:13:38.300Z,101964.34
2022-12-04T03:16:11.134Z,101961.78
2022-12-04T03:18:42.910Z,101961.78
2022-12-04T03:21:21.559Z,101956.63
2022-12-04T03:23:54.313Z,101968.59
2022-12-04T03:26:32.440Z,101974.59
2022-12-04T03:29:06.920Z,101971.94
2022-12-04T03:32:12.130Z,101976.25
2022-12-04T03:34:51.363Z,101964.25
2022-12-04T03:37:24.463Z,101963.44
2022-12-04T03:39:57.501Z,101963.44
2022-12-04T03:42:32.538Z,101966.88
2022-12-04T03:45:17.518Z,101969.47
2022-12-04T03:47:59.293Z,101962.63
2022-12-04T03:50:32.692Z,101959.19
2022-12-04T03:53:24.928Z,101962.66
2022-12-04T03:56:13.898Z,101960.06
2022-12-04T03:58:46.594Z,101958.34
2022-12-04T04:01:17.996Z,101954.06
2022-12-04T04:03:51.671Z,101953.25
2022-12-04T04:06:23.933Z,101954.09
2022-12-04T04:08:55.147Z,101946.38
2022-12-04T04:11:34.364Z,101954.09
2022-12-04T04:14:24.675Z,101956.66
2022-12-04T04:17:18.551Z,101954.09
2022-12-04T04:20:09.048Z,101957.56
2022-12-04T04:22:56.169Z,101954.94
2022-12-04T04:25:26.716Z,101963.50
2022-12-04T04:27:58.108Z,101966.06
2022-12-04T04:30:25.899Z,101964.34
2022-12-04T04:33:13.137Z,101964.34
2022-12-04T04:51:23.222Z,101948.91
2022-12-04T04:53:52.551Z,101953.19
2022-12-04T04:56:21.332Z,101952.41
2022-12-04T04:58:48.225Z,101947.19
2022-12-04T05:01:20.671Z,101948.91
2022-12-04T05:03:47.413Z,101940.38
2022-12-04T05:06:14.309Z,101958.34
2022-12-04T05:08:41.108Z,101950.63
2022-12-04T05:11:13.015Z,101944.63
2022-12-04T05:13:39.801Z,101955.81
2022-12-04T05:16:10.345Z,101954.16
2022-12-04T05:18:37.523Z,101955.84
2022-12-04T05:21:09.021Z,101947.28
2022-12-04T05:23:35.855Z,101950.72
2022-12-04T05:26:05.109Z,101959.28
2022-12-04T05:28:31.770Z,101957.56
2022-12-04T05:31:02.220Z,101953.31
2022-12-04T05:33:29.893Z,101948.25
2022-12-04T05:36:00.725Z,101957.69
2022-12-04T05:38:27.859Z,101950.78
2022-12-04T05:40:54.484Z,101960.25
2022-12-04T05:43:21.109Z,101965.34
2022-12-04T05:45:47.693Z,101944.78
2022-12-04T05:48:14.411Z,101957.63
2022-12-04T05:50:41.238Z,101965.34
2022-12-04T05:53:08.176Z,101963.66
2022-12-04T05:55:34.863Z,101968.78
2022-12-04T05:58:01.579Z,101960.22
2022-12-04T06:00:28.838Z,101973.94
2022-12-04T06:02:55.419Z,101949.94
2022-12-04T06:05:23.459Z,101973.94
2022-12-04T06:07:50.239Z,101962.78
2022-12-04T06:10:16.814Z,101970.47
2022-12-04T06:12:43.529Z,101962.72
2022-12-04T06:15:10.700Z,101961.94
2022-12-04T06:17:37.239Z,101970.50
2022-12-04T06:20:09.554Z,101977.28
2022-12-04T06:22:37.902Z,101971.28
2022-12-04T06:25:04.663Z,101984.16
2022-12-04T06:27:31.314Z,101985.03
2022-12-04T06:29:58.169Z,101986.75
2022-12-04T06:32:25.103Z,101984.19
2022-12-04T06:34:53.395Z,101987.66
2022-12-04T06:37:22.686Z,101974.78
2022-12-04T06:39:49.412Z,101971.44
2022-12-04T06:42:16.784Z,101983.38
2022-12-04T06:44:43.428Z,101971.41
2022-12-04T06:47:10.115Z,101979.13
2022-12-04T06:49:36.676Z,101972.28
2022-12-04T06:52:03.878Z,101976.53
2022-12-04T06:54:30.470Z,101983.41
2022-12-04T06:56:57.097Z,101988.53
2022-12-04T06:59:23.828Z,101991.09
2022-12-04T07:01:50.673Z,101986.81
2022-12-04T07:04:17.351Z,101993.66
2022-12-04T07:06:44.075Z,101996.25
2022-12-04T07:09:14.667Z,102002.22
2022-12-04T07:11:42.368Z,102000.47
2022-12-04T07:14:09.259Z,102000.47
2022-12-04T07:16:40.604Z,102009.88
2022-12-04T07:19:12.887Z,101994.47
2022-12-04T07:21:40.059Z,102003.91
2022-12-04T07:24:06.802Z,101997.06
2022-12-04T07:26:35.135Z,101989.34
2022-12-04T07:29:01.807Z,102003.09
2022-12-04T07:31:29.555Z,102004.84
2022-12-04T07:33:57.433Z,102009.06
2022-12-04T07:36:25.820Z,102004.78
2022-12-04T07:38:52.506Z,102007.41
2022-12-04T07:41:19.825Z,101997.13
2022-12-04T07:43:46.657Z,102007.41
2022-12-04T07:46:22.587Z,102012.53
2022-12-04T07:48:49.329Z,102009.94
2022-12-04T07:51:23.096Z,101999.66
2022-12-04T07:53:51.059Z,102016.78
2022-12-04T07:56:18.635Z,102006.56
2022-12-04T07:58:45.978Z,102002.22
2022-12-04T08:01:16.338Z,102003.09
2022-12-04T08:03:48.116Z,102016.78
2022-12-04T08:06:17.850Z,102021.06
2022-12-04T08:08:45.094Z,102016.78
2022-12-04T08:11:15.003Z,102020.22
2022-12-04T08:13:41.862Z,102017.66
2022-12-04T08:16:10.326Z,102029.63
2022-12-04T08:18:37.217Z,102010.78
2022-12-04T08:21:08.315Z,102022.75
2022-12-04T08:23:35.682Z,102017.63
2022-12-04T08:26:02.797Z,102015.03
2022-12-04T08:28:29.779Z,102015.88
2022-12-04T08:31:03.223Z,102028.75
2022-12-04T08:33:29.866Z,102025.31
2022-12-04T08:35:56.536Z,102015.94
2022-12-04T08:38:23.109Z,102022.78
2022-12-04T08:40:49.995Z,102026.22
2022-12-04T08:43:16.632Z,102016.81
2022-12-04T08:45:43.280Z,102021.97
2022-12-04T08:48:09.960Z,102030.50
2022-12-04T08:50:36.499Z,102030.50
2022-12-04T08:53:03.127Z,102022.78
2022-12-04T08:55:29.696Z,102033.06
2022-12-04T08:57:56.253Z,102027.03
2022-12-04T09:00:23.020Z,102040.75
2022-12-04T09:02:50.155Z,102031.38
2022-12-04T09:05:17.171Z,102036.47
2022-12-04T09:07:43.804Z,102025.34
2022-12-04T09:10:11.101Z,102019.38
2022-12-04T09:12:37.765Z,102020.22
2022-12-04T09:15:04.748Z,102029.63
2022-12-04T09:17:31.525Z,102025.31
2022-12-04T09:20:01.222Z,102015.91
2022-12-04T09:22:45.439Z,102038.16
2022-12-04T09:25:12.469Z,102027.88
2022-12-04T09:27:41.621Z,102025.31
2022-12-04T09:30:10.136Z,102026.13
2022-12-04T09:32:36.882Z,102020.16
2022-12-04T09:35:05.022Z,102008.19
2022-12-04T09:37:33.423Z,102015.00
2022-12-04T09:40:00.127Z,102016.75
2022-12-04T09:42:54.833Z,102019.34
2022-12-04T09:45:25.334Z,102018.44
2022-12-04T09:47:59.341Z,102022.72
2022-12-04T09:50:33.874Z,102027.84
2022-12-04T09:53:10.815Z,102023.56
2022-12-04T09:55:41.173Z,102030.41
2022-12-04T09:58:14.991Z,102021.00
2022-12-04T10:00:44.235Z,102022.66
2022-12-04T10:03:16.772Z,102014.09
2022-12-04T10:05:59.488Z,102032.06
2022-12-04T10:08:35.884Z,102014.09
2022-12-04T10:11:12.209Z,102014.94
2022-12-04T10:13:57.397Z,102014.94
2022-12-04T10:16:49.121Z,102018.34
2022-12-04T10:19:18.563Z,102016.63
2022-12-04T10:21:51.817Z,102018.31
2022-12-04T10:24:33.415Z,102024.31
2022-12-04T10:27:06.698Z,102022.53
2022-12-04T10:29:35.979Z,102017.44
2022-12-04T10:32:26.834Z,102028.50
2022-12-04T10:34:56.541Z,102021.63
2022-12-04T10:37:24.244Z,102031.94
2022-12-04T10:40:14.122Z,102019.09
2022-12-04T10:42:54.049Z,102028.53
2022-12-04T10:45:23.096Z,102018.19
2022-12-04T10:47:51.861Z,102021.66
2022-12-04T10:50:21.920Z,102023.41
2022-12-04T10:52:48.681Z,102014.88
2022-12-04T10:55:15.319Z,102020.84
2022-12-04T10:57:45.141Z,102018.25
2022-12-04T11:00:27.107Z,102018.28
2022-12-04T11:02:55.717Z,102009.66
2022-12-04T11:05:53.261Z,101999.34
2022-12-04T11:08:26.457Z,102004.53
2022-12-04T11:11:05.387Z,102002.78
2022-12-04T11:13:32.066Z,102003.66
2022-12-04T11:15:59.314Z,102011.34
2022-12-04T11:18:31.289Z,102010.53
2022-12-04T11:21:06.908Z,102001.94
2022-12-04T11:23:44.552Z,102005.44
2022-12-04T11:26:12.067Z,102007.09
2022-12-04T11:28:43.739Z,102001.09
2022-12-04T11:31:18.196Z,102007.09
2022-12-04T11:34:02.937Z,102000.22
2022-12-04T11:36:34.962Z,102003.72
2022-12-04T11:39:15.690Z,101996.03
2022-12-04T11:41:42.775Z,101992.59
2022-12-04T11:44:27.594Z,102002.06
2022-12-04T11:46:58.492Z,101997.72
2022-12-04T11:49:26.659Z,101995.19
2022-12-04T11:52:05.202Z,102002.00
2022-12-04T11:54:51.006Z,101999.38
2022-12-04T11:57:27.515Z,101997.72
2022-12-04T12:00:00.046Z,101993.38
2022-12-04T12:02:38.578Z,101999.38
2022-12-04T12:05:18.602Z,101993.38
2022-12-04T12:08:12.317Z,101994.28
2022-12-04T12:11:05.320Z,101980.59
2022-12-04T12:13:57.244Z,101982.25
2022-12-04T12:17:04.412Z,101971.16
2022-12-04T12:19:58.017Z,101973.75
2022-12-04T12:22:54.235Z,101979.75
2022-12-04T12:25:38.603Z,101976.31
2022-12-04T12:28:29.642Z,101968.59
2022-12-04T12:31:17.260Z,101965.16
2022-12-04T12:33:51.817Z,101960.94
2022-12-04T12:36:21.761Z,101959.19
2022-12-04T12:38:53.810Z,101970.34
2022-12-04T12:41:26.822Z,101966.06
2022-12-04T12:44:21.486Z,101966.91
2022-12-04T12:47:00.828Z,101966.94
2022-12-04T12:49:47.709Z,101961.75
2022-12-04T12:52:39.091Z,101948.13
2022-12-04T12:55:26.923Z,101950.69
2022-12-04T12:58:04.572Z,101948.94
2022-12-04T13:00:36.848Z,101953.19
2022-12-04T13:03:19.376Z,101954.88
2022-12-04T13:05:51.838Z,101942.06
2022-12-04T13:08:25.843Z,101948.03
2022-12-04T13:11:08.894Z,101944.59
2022-12-04T13:13:43.263Z,101945.50
2022-12-04T13:16:17.777Z,101934.47
2022-12-04T13:19:04.670Z,101939.56
2022-12-04T13:21:37.316Z,101949.84
2022-12-04T13:24:16.094Z,101938.66
2022-12-04T13:27:05.849Z,101945.47
2022-12-04T13:30:09.957Z,101940.44
2022-12-04T13:33:08.982Z,101943.88
2022-12-04T13:36:07.127Z,101937.84
2022-12-04T13:38:58.037Z,101937.88
2022-12-04T13:41:27.216Z,101942.09
2022-12-04T13:43:55.052Z,101927.53
2022-12-04T13:46:40.998Z,101939.59
2022-12-04T13:49:31.887Z,101937.88
2022-12-04T13:52:00.266Z,101938.72
2022-12-04T13:54:31.596Z,101933.56
2022-12-04T13:57:30.559Z,101938.69
2022-12-04T14:00:23.946Z,101925.81
2022-12-04T14:02:55.637Z,101937.91
2022-12-04T14:05:42.734Z,101947.31
2022-12-04T14:08:24.935Z,101933.53
2022-12-04T14:11:17.362Z,101935.16
2022-12-04T14:13:54.179Z,101944.56
2022-12-04T14:16:30.645Z,101947.13
2022-12-04T14:19:00.431Z,101944.59
2022-12-04T14:21:45.391Z,101943.75
2022-12-04T14:24:32.046Z,101955.66
2022-12-04T14:27:14.322Z,101946.31
2022-12-04T14:29:48.066Z,101957.44
2022-12-04T14:32:21.735Z,101952.25
2022-12-04T14:34:49.820Z,101949.66
2022-12-04T14:37:27.763Z,101943.69
2022-12-04T14:39:56.959Z,101951.38
2022-12-04T14:42:31.426Z,101944.53
2022-12-04T14:45:04.025Z,101944.59
2022-12-04T14:47:48.264Z,101945.41
2022-12-04T14:50:55.586Z,101959.09
2022-12-04T14:53:49.994Z,101943.66
2022-12-04T14:56:31.396Z,101946.19
2022-12-04T14:58:59.258Z,101956.44
2022-12-04T15:01:30.626Z,101940.97
2022-12-04T15:04:04.017Z,101946.13
2022-12-04T15:06:33.229Z,101945.22
2022-12-04T15:09:21.102Z,101957.22
2022-12-04T15:12:11.629Z,101950.28
2022-12-04T15:14:47.261Z,101947.69
2022-12-04T15:17:16.142Z,101957.13
2022-12-04T15:19:42.811Z,101954.63
2022-12-04T15:22:26.061Z,101950.34
2022-12-04T15:24:54.957Z,101953.72
2022-12-04T15:27:31.678Z,101945.22
2022-12-04T15:30:01.308Z,101947.78
2022-12-04T15:32:28.831Z,101947.00
2022-12-04T15:35:01.208Z,101946.97
2022-12-04T15:37:32.777Z,101952.00
2022-12-04T15:40:00.033Z,101954.56
2022-12-04T15:42:28.028Z,101953.69
2022-12-04T15:45:01.899Z,101954.50
2022-12-04T15:47:36.679Z,101952.81
2022-12-04T15:50:27.087Z,101945.94
2022-12-04T15:53:22.865Z,101950.25
2022-12-04T15:55:52.391Z,101941.63
2022-12-04T15:58:22.875Z,101942.53
2022-12-04T16:00:56.679Z,101930.53
2022-12-04T16:03:43.553Z,101933.06
2022-12-04T16:06:31.014Z,101926.25
2022-12-04T16:09:17.078Z,101938.22
2022-12-04T16:11:44.605Z,101934.78
2022-12-04T16:14:11.262Z,101939.88
2022-12-04T16:16:43.673Z,101939.00
2022-12-04T16:19:19.133Z,101945.84
2022-12-04T16:21:46.545Z,101931.28
2022-12-04T16:24:14.038Z,101926.13
2022-12-04T16:26:41.545Z,101936.38
2022-12-04T16:29:09.011Z,101931.22
2022-12-04T16:31:38.008Z,101932.88
2022-12-04T16:34:04.778Z,101929.41
2022-12-04T16:36:31.417Z,101930.25
2022-12-04T16:38:58.013Z,101930.22
2022-12-04T16:41:24.770Z,101929.38
2022-12-04T16:43:57.855Z,101924.19
2022-12-04T16:46:27.557Z,101936.13
2022-12-04T16:48:54.136Z,101932.72
2022-12-04T16:51:24.041Z,101938.66
2022-12-04T16:53:51.947Z,101923.28
2022-12-04T16:56:19.767Z,101924.91
2022-12-04T16:58:46.647Z,101920.63
2022-12-04T17:01:21.244Z,101925.78
2022-12-04T17:03:48.744Z,101922.28
2022-12-04T17:06:16.170Z,101921.50
2022-12-04T17:08:42.868Z,101941.16
2022-12-04T17:11:13.276Z,101931.63
2022-12-04T17:13:40.026Z,101937.53
2022-12-04T17:16:06.688Z,101945.19
2022-12-04T17:18:33.250Z,101937.47
2022-12-04T17:20:59.871Z,101939.22
2022-12-04T17:23:27.265Z,101938.38
2022-12-04T17:25:53.848Z,101933.16
2022-12-04T17:28:20.392Z,101932.28
2022-12-04T17:30:47.196Z,101936.56
2022-12-04T17:33:14.124Z,101946.88
2022-12-04T17:35:43.400Z,101935.63
2022-12-04T17:38:10.040Z,101945.91
2022-12-04T17:40:36.663Z,101942.81
2022-12-04T17:43:03.520Z,101943.56
2022-12-04T17:45:30.630Z,101939.25
2022-12-04T17:47:58.647Z,101947.00
2022-12-04T17:50:25.194Z,101943.53
2022-12-04T17:52:51.967Z,101953.78
2022-12-04T17:55:18.600Z,101951.13
2022-12-04T17:57:45.189Z,101944.25
2022-12-04T18:00:12.130Z,101944.13
2022-12-04T18:02:42.354Z,101944.94
2022-12-04T18:05:09.864Z,101943.31
2022-12-04T18:07:36.676Z,101934.69
2022-12-04T18:10:03.537Z,101944.28
2022-12-04T18:12:30.161Z,101940.06
2022-12-04T18:14:56.752Z,101937.53
2022-12-04T18:17:23.520Z,101921.22
2022-12-04T18:19:50.127Z,101922.19
2022-12-04T18:22:16.826Z,101918.69
2022-12-04T18:24:43.417Z,101918.53
2022-12-04T18:27:10.020Z,101921.06
2022-12-04T18:29:36.967Z,101916.03
2022-12-04T18:32:03.792Z,101919.59
2022-12-04T18:34:30.501Z,101916.25
2022-12-04T18:36:57.273Z,101910.19
2022-12-04T18:39:25.658Z,101911.03
2022-12-04T18:41:55.151Z,101913.63
2022-12-04T18:44:22.109Z,101911.00
2022-12-04T18:46:49.219Z,101915.34
2022-12-04T18:49:15.803Z,101908.31
2022-12-04T18:51:49.140Z,101912.59
2022-12-04T18:54:22.080Z,101910.09
2022-12-04T18:56:49.607Z,101904.97
2022-12-04T18:59:20.054Z,101907.44
2022-12-04T19:01:50.472Z,101910.03
2022-12-04T19:04:19.428Z,101888.66
2022-12-04T19:06:51.747Z,101908.31
2022-12-04T19:09:35.438Z,101906.50
2022-12-04T19:12:08.889Z,101917.56
2022-12-04T19:14:35.476Z,101903.75
2022-12-04T19:17:02.078Z,101903.75
2022-12-04T19:19:31.566Z,101914.06
2022-12-04T19:21:59.036Z,101911.50
2022-12-04T19:24:27.119Z,101920.94
2022-12-04T19:26:54.045Z,101921.09
2022-12-04T19:29:20.626Z,101919.31
2022-12-04T19:31:47.466Z,101926.13
2022-12-04T19:34:14.084Z,101924.47
2022-12-04T19:36:41.254Z,101926.94
2022-12-04T19:39:07.974Z,101935.56
2022-12-04T19:41:37.035Z,101929.59
2022-12-04T19:44:25.991Z,101935.72
2022-12-04T19:46:50.986Z,101933.03
2022-12-04T19:49:17.525Z,101944.25
2022-12-04T19:51:44.233Z,101934.72
2022-12-04T19:54:12.973Z,101938.97
2022-12-04T19:56:40.134Z,101938.28
2022-12-04T19:59:07.996Z,101931.50
2022-12-04T20:01:35.617Z,101933.28
2022-12-04T20:04:05.646Z,101926.44
2022-12-04T20:06:38.591Z,101932.41
2022-12-04T20:09:07.871Z,101937.41
2022-12-04T20:11:35.609Z,101924.50
2022-12-04T20:14:03.454Z,101939.16
2022-12-04T20:16:32.668Z,101936.50
2022-12-04T20:19:01.231Z,101930.66
2022-12-04T20:21:31.949Z,101928.09
2022-12-04T20:24:02.524Z,101926.31
2022-12-04T20:26:33.440Z,101926.41
2022-12-04T20:29:01.180Z,101918.66
2022-12-04T20:31:33.044Z,101909.97
2022-12-04T20:34:01.884Z,101910.03
2022-12-04T20:36:29.975Z,101904.00
2022-12-04T20:38:58.240Z,101917.78
2022-12-04T20:41:29.911Z,101913.50
2022-12-04T20:43:59.967Z,101919.50
2022-12-04T20:46:31.625Z,101917.81
2022-12-04T20:49:00.927Z,101915.25
2022-12-04T20:51:31.048Z,101918.66
2022-12-04T20:53:59.174Z,101919.50
2022-12-04T20:56:30.459Z,101920.31
2022-12-04T20:58:58.290Z,101915.25
2022-12-04T21:01:25.236Z,101904.94
2022-12-04T21:03:52.963Z,101918.66
2022-12-04T21:06:23.394Z,101912.69
2022-12-04T21:08:54.621Z,101915.25
2022-12-04T21:11:29.556Z,101915.38
2022-12-04T21:14:16.209Z,101919.69
2022-12-04T21:16:43.655Z,101916.16
2022-12-04T21:19:11.786Z,101918.69
2022-12-04T21:21:38.924Z,101919.50
2022-12-04T21:24:08.405Z,101918.59
2022-12-04T21:26:35.170Z,101910.84
2022-12-04T21:29:02.840Z,101922.88
2022-12-04T21:31:30.933Z,101919.47
2022-12-04T21:34:03.047Z,101917.72
2022-12-04T21:36:29.654Z,101897.06
2022-12-04T21:38:56.758Z,101912.53
2022-12-04T21:41:42.659Z,101918.44
2022-12-04T21:44:15.986Z,101897.16
2022-12-04T21:46:43.646Z,101900.72
2022-12-04T21:49:11.068Z,101897.25
2022-12-04T21:54:25.890Z,101895.44
2022-12-04T21:56:52.566Z,101891.19
2022-12-04T21:59:19.210Z,101890.31
2022-12-04T22:01:46.010Z,101895.34
2022-12-04T22:04:12.919Z,101881.50
2022-12-04T22:06:39.556Z,101887.53
2022-12-04T22:09:08.738Z,101903.00
2022-12-04T22:11:35.633Z,101895.25
2022-12-04T22:14:02.572Z,101894.34
2022-12-04T22:16:30.883Z,101883.41
2022-12-04T22:18:59.487Z,101884.22
2022-12-04T22:21:27.467Z,101873.03
2022-12-04T22:23:58.951Z,101872.94
2022-12-04T22:26:27.059Z,101879.84
2022-12-04T22:28:53.948Z,101868.75
2022-12-04T22:31:23.076Z,101860.09
2022-12-04T22:33:51.982Z,101851.44
2022-12-04T22:36:30.519Z,101848.84
2022-12-04T22:39:12.912Z,101846.31
2022-12-04T22:41:39.557Z,101844.66
2022-12-04T22:44:06.260Z,101842.97
2022-12-04T22:46:33.349Z,101852.41
2022-12-04T22:49:00.160Z,101843.84
2022-12-04T22:51:27.571Z,101850.78
2022-12-04T22:53:56.284Z,101843.94
2022-12-04T22:56:31.243Z,101827.63
2022-12-04T22:58:58.716Z,101831.91
2022-12-04T23:01:27.730Z,101844.75
2022-12-04T23:03:54.725Z,101841.34
2022-12-04T23:06:24.154Z,101843.91
2022-12-04T23:08:58.936Z,101836.16
2022-12-04T23:11:26.377Z,101832.69
2022-12-04T23:14:00.312Z,101846.44
2022-12-04T23:16:29.536Z,101827.59
2022-12-04T23:18:56.772Z,101816.38
2022-12-04T23:21:24.151Z,101822.50
2022-12-04T23:23:52.666Z,101820.78
2022-12-04T23:26:22.469Z,101802.81
2022-12-04T23:28:49.104Z,101814.81
2022-12-04T23:31:15.974Z,101817.38
2022-12-04T23:33:42.684Z,101803.63
2022-12-04T23:36:11.491Z,101792.53
2022-12-04T23:38:40.179Z,101791.63
2022-12-04T23:41:15.146Z,101791.66
2022-12-04T23:43:43.072Z,101789.91
2022-12-04T23:46:11.985Z,101788.28
2022-12-04T23:48:43.024Z,101787.44
2022-12-04T23:51:11.654Z,101796.94
2022-12-04T23:53:38.257Z,101793.47
2022-12-04T23:56:15.920Z,101799.47
2022-12-04T23:58:43.486Z,101794.19
